createdAt,value
2022-08-07T00:00:24.336Z,99240.59
2022-08-07T00:02:53.516Z,99242.78
2022-08-07T00:05:23.676Z,99233.53
2022-08-07T00:08:00.170Z,99233.06
2022-08-07T00:10:30.385Z,99229.84
2022-08-07T00:13:17.478Z,99228.47
2022-08-07T00:15:52.182Z,99229.28
2022-08-07T00:18:24.528Z,99235.16
2022-08-07T00:21:04.036Z,99242.97
2022-08-07T00:23:37.726Z,99230.66
2022-08-07T00:26:18.627Z,99228.91
2022-08-07T00:28:58.365Z,99228.91
2022-08-07T00:31:37.980Z,99224.53
2022-08-07T00:34:09.504Z,99235.09
2022-08-07T00:36:38.669Z,99217.59
2022-08-07T00:39:16.193Z,99228.66
2022-08-07T00:41:53.515Z,99223.59
2022-08-07T00:44:28.435Z,99225.06
2022-08-07T00:46:55.580Z,99215.50
2022-08-07T00:49:25.002Z,99209.41
2022-08-07T00:52:10.602Z,99217.34
2022-08-07T00:54:41.345Z,99209.75
2022-08-07T00:57:10.243Z,99220.78
2022-08-07T00:59:39.252Z,99216.06
2022-08-07T01:02:14.051Z,99217.69
2022-08-07T01:04:56.905Z,99215.25
2022-08-07T01:07:28.366Z,99220.31
2022-08-07T01:10:05.754Z,99217.09
2022-08-07T01:12:35.589Z,99222.97
2022-08-07T01:15:04.235Z,99222.50
2022-08-07T01:17:32.818Z,99207.63
2022-08-07T01:20:16.678Z,99220.63
2022-08-07T01:22:58.357Z,99218.22
2022-08-07T01:25:40.515Z,99217.25
2022-08-07T01:28:22.125Z,99219.88
2022-08-07T01:30:52.847Z,99212.63
2022-08-07T01:33:23.596Z,99223.22
2022-08-07T01:36:06.169Z,99219.97
2022-08-07T01:38:36.952Z,99221.13
2022-08-07T01:41:13.969Z,99219.06
2022-08-07T01:43:54.386Z,99209.97
2022-08-07T01:46:21.840Z,99223.75
2022-08-07T01:48:48.997Z,99210.31
2022-08-07T01:51:58.615Z,99221.47
2022-08-07T01:54:21.962Z,99225.72
2022-08-07T01:57:26.573Z,99213.88
2022-08-07T02:00:01.064Z,99224.44
2022-08-07T02:03:12.016Z,99215.34
2022-08-07T02:05:47.908Z,99224.44
2022-08-07T02:08:27.300Z,99212.59
2022-08-07T02:10:58.690Z,99207.53
2022-08-07T02:13:57.732Z,99212.38
2022-08-07T02:16:33.401Z,99209.28
2022-08-07T02:20:07.204Z,99201.13
2022-08-07T02:21:59.704Z,99195.63
2022-08-07T02:24:29.426Z,99207.47
2022-08-07T02:27:02.685Z,99189.75
2022-08-07T02:29:34.461Z,99197.69
2022-08-07T02:32:11.237Z,99194.59
2022-08-07T02:34:50.988Z,99189.41
2022-08-07T02:37:25.113Z,99203.78
2022-08-07T02:40:11.914Z,99189.88
2022-08-07T02:42:46.168Z,99194.38
2022-08-07T02:45:58.287Z,99197.59
2022-08-07T02:48:05.377Z,99204.75
2022-08-07T02:50:40.456Z,99205.00
2022-08-07T02:53:12.281Z,99216.03
2022-08-07T02:56:03.370Z,99218.81
2022-08-07T02:58:34.534Z,99206.63
2022-08-07T03:01:04.150Z,99205.13
2022-08-07T03:03:50.038Z,99207.19
2022-08-07T03:06:29.641Z,99208.47
2022-08-07T03:09:03.819Z,99216.53
2022-08-07T03:11:38.638Z,99204.00
2022-08-07T03:14:07.614Z,99214.00
2022-08-07T03:16:35.715Z,99207.47
2022-08-07T03:19:04.929Z,99209.91
2022-08-07T03:21:33.549Z,99220.41
2022-08-07T03:24:19.990Z,99216.50
2022-08-07T03:26:58.556Z,99219.50
2022-08-07T03:29:37.787Z,99209.72
2022-08-07T03:32:13.172Z,99209.47
2022-08-07T03:34:47.401Z,99217.22
2022-08-07T03:37:37.367Z,99207.91
2022-08-07T03:40:15.923Z,99211.22
2022-08-07T03:42:45.244Z,99219.63
2022-08-07T03:45:29.817Z,99212.59
2022-08-07T03:48:02.099Z,99218.25
2022-08-07T03:50:34.967Z,99197.19
2022-08-07T03:53:03.203Z,99211.13
2022-08-07T03:55:46.164Z,99206.63
2022-08-07T03:59:07.359Z,99214.66
2022-08-07T04:01:11.547Z,99206.97
2022-08-07T04:03:53.637Z,99203.06
2022-08-07T04:06:38.044Z,99204.91
2022-08-07T04:09:15.613Z,99209.72
2022-08-07T04:12:27.090Z,99211.91
2022-08-07T04:14:38.791Z,99209.69
2022-08-07T04:17:20.051Z,99205.88
2022-08-07T04:19:51.873Z,99215.22
2022-08-07T04:22:22.979Z,99219.34
2022-08-07T04:24:51.527Z,99209.97
2022-08-07T04:27:25.196Z,99210.53
2022-08-07T04:30:02.284Z,99214.22
2022-08-07T04:32:58.409Z,99216.41
2022-08-07T04:35:35.187Z,99215.44
2022-08-07T04:38:08.429Z,99213.69
2022-08-07T04:40:52.522Z,99221.38
2022-08-07T04:44:10.625Z,99214.91
2022-08-07T04:47:05.033Z,99207.13
2022-08-07T04:49:25.578Z,99225.19
2022-08-07T04:52:02.175Z,99222.97
2022-08-07T04:55:01.823Z,99222.00
2022-08-07T04:58:11.900Z,99232.13
2022-08-07T05:00:53.848Z,99229.59
2022-08-07T05:04:00.604Z,99234.59
2022-08-07T05:06:43.187Z,99223.41
2022-08-07T05:09:28.002Z,99233.94
2022-08-07T05:12:15.641Z,99225.53
2022-08-07T05:15:04.583Z,99228.09
2022-08-07T05:17:52.528Z,99227.09
2022-08-07T05:20:31.118Z,99224.94
2022-08-07T05:23:05.967Z,99229.53
2022-08-07T05:26:10.662Z,99235.38
2022-08-07T05:28:35.458Z,99222.53
2022-08-07T05:31:04.566Z,99222.25
2022-08-07T05:33:36.910Z,99224.31
2022-08-07T05:36:12.086Z,99217.59
2022-08-07T05:39:01.140Z,99222.06
2022-08-07T05:42:02.397Z,99220.19
2022-08-07T05:44:29.434Z,99238.59
2022-08-07T05:47:01.079Z,99238.16
2022-08-07T05:49:40.615Z,99231.22
2022-08-07T05:52:11.620Z,99212.81
2022-08-07T05:54:44.578Z,99219.66
2022-08-07T05:57:26.648Z,99249.13
2022-08-07T06:00:01.332Z,99222.44
2022-08-07T06:02:40.767Z,99229.69
2022-08-07T06:05:15.826Z,99234.97
2022-08-07T06:08:14.885Z,99248.88
2022-08-07T06:10:37.600Z,99218.53
2022-08-07T06:13:06.646Z,99249.00
2022-08-07T06:15:42.968Z,99239.81
2022-08-07T06:18:16.503Z,99235.00
2022-08-07T06:20:50.241Z,99231.88
2022-08-07T06:24:38.479Z,99232.13
2022-08-07T06:26:27.539Z,99230.88
2022-08-07T06:29:01.232Z,99235.06
2022-08-07T06:31:46.482Z,99239.63
2022-08-07T06:34:20.448Z,99227.44
2022-08-07T06:36:51.941Z,99247.41
2022-08-07T06:40:18.024Z,99239.19
2022-08-07T06:42:37.662Z,99238.09
2022-08-07T06:45:11.229Z,99237.41
2022-08-07T06:47:48.097Z,99234.59
2022-08-07T06:50:27.723Z,99248.44
2022-08-07T06:52:59.490Z,99240.38
2022-08-07T06:55:48.030Z,99234.00
2022-08-07T06:58:21.441Z,99253.59
2022-08-07T07:01:06.285Z,99245.31
2022-08-07T07:03:47.855Z,99246.69
2022-08-07T07:06:23.781Z,99242.19
2022-08-07T07:08:51.114Z,99248.78
2022-08-07T07:12:08.389Z,99230.97
2022-08-07T07:14:08.307Z,99239.91
2022-08-07T07:16:49.474Z,99236.75
2022-08-07T07:22:36.262Z,99250.88
2022-08-07T07:26:33.868Z,99230.94
2022-08-07T07:28:42.624Z,99240.97
2022-08-07T07:31:21.532Z,99235.75
2022-08-07T07:33:56.868Z,99243.25
2022-08-07T07:36:32.219Z,99234.78
2022-08-07T07:39:02.644Z,99235.56
2022-08-07T07:42:02.182Z,99242.38
2022-08-07T07:44:26.613Z,99238.84
2022-08-07T07:47:04.253Z,99230.50
2022-08-07T07:50:33.757Z,99231.75
2022-08-07T07:52:32.603Z,99239.03
2022-08-07T07:55:00.841Z,99233.47
2022-08-07T07:57:51.770Z,99235.94
2022-08-07T08:00:28.800Z,99237.56
2022-08-07T08:03:05.642Z,99222.00
2022-08-07T08:05:50.771Z,99232.03
2022-08-07T08:08:34.704Z,99226.84
2022-08-07T08:11:09.018Z,99237.25
2022-08-07T08:13:54.548Z,99248.84
2022-08-07T08:16:50.428Z,99225.69
2022-08-07T08:20:17.446Z,99222.50
2022-08-07T08:22:54.349Z,99221.28
2022-08-07T08:25:48.963Z,99220.47
2022-08-07T08:28:37.257Z,99221.25
2022-08-07T08:31:10.805Z,99224.00
2022-08-07T08:33:49.283Z,99223.59
2022-08-07T08:36:30.399Z,99203.16
2022-08-07T08:39:05.360Z,99204.34
2022-08-07T08:41:58.695Z,99217.53
2022-08-07T08:44:38.335Z,99215.53
2022-08-07T08:47:26.420Z,99219.56
2022-08-07T08:50:17.582Z,99217.19
2022-08-07T08:53:19.409Z,99194.03
2022-08-07T08:55:59.541Z,99206.03
2022-08-07T08:58:50.626Z,99200.03
2022-08-07T09:01:21.419Z,99198.03
2022-08-07T09:04:08.216Z,99194.47
2022-08-07T09:07:11.136Z,99204.47
2022-08-07T09:09:42.827Z,99203.28
2022-08-07T09:12:30.977Z,99196.88
2022-08-07T09:16:24.812Z,99199.25
2022-08-07T09:18:07.157Z,99202.09
2022-08-07T09:21:05.012Z,99209.25
2022-08-07T09:24:54.109Z,99202.06
2022-08-07T09:26:53.277Z,99193.66
2022-08-07T09:30:05.592Z,99187.66
2022-08-07T09:32:49.648Z,99198.88
2022-08-07T09:36:03.453Z,99184.06
2022-08-07T09:39:06.258Z,99182.88
2022-08-07T09:41:59.045Z,99185.69
2022-08-07T09:47:24.047Z,99178.09
2022-08-07T09:48:06.358Z,99176.09
2022-08-07T09:50:44.588Z,99174.09
2022-08-07T09:53:20.292Z,99168.88
2022-08-07T09:56:05.703Z,99158.91
2022-08-07T09:59:07.650Z,99160.47
2022-08-07T10:02:10.928Z,99155.69
2022-08-07T10:04:54.960Z,99154.91
2022-08-07T10:07:52.392Z,99143.31
2022-08-07T10:14:01.360Z,99158.47
2022-08-07T10:16:38.023Z,99143.22
2022-08-07T10:19:30.041Z,99141.63
2022-08-07T10:22:16.182Z,99132.03
2022-08-07T10:25:02.763Z,99142.06
2022-08-07T10:27:51.135Z,99128.41
2022-08-07T10:30:40.849Z,99121.59
2022-08-07T10:33:16.813Z,99125.16
2022-08-07T10:36:14.176Z,99134.31
2022-08-07T10:38:58.775Z,99125.47
2022-08-07T10:41:51.894Z,99119.00
2022-08-07T10:44:38.654Z,99117.75
2022-08-07T10:47:13.978Z,99119.28
2022-08-07T10:49:50.990Z,99122.03
2022-08-07T10:52:31.730Z,99105.88
2022-08-07T10:55:37.844Z,99108.13
2022-08-07T10:58:13.995Z,99098.78
2022-08-07T11:00:55.877Z,99100.25
2022-08-07T11:03:47.886Z,99091.19
2022-08-07T11:06:29.278Z,99114.34
2022-08-07T11:09:02.412Z,99106.72
2022-08-07T11:11:59.303Z,99095.28
2022-08-07T11:14:44.756Z,99109.50
2022-08-07T11:17:42.822Z,99106.34
2022-08-07T11:20:24.931Z,99115.56
2022-08-07T11:23:26.262Z,99109.31
2022-08-07T11:26:17.121Z,99142.81
2022-08-07T11:29:13.121Z,99147.13
2022-08-07T11:31:56.013Z,99126.91
2022-08-07T11:34:36.990Z,99147.22
2022-08-07T11:37:58.174Z,99139.50
2022-08-07T11:42:01.343Z,99147.28
2022-08-07T11:44:25.390Z,99147.41
2022-08-07T11:47:38.999Z,99145.69
2022-08-07T11:50:31.377Z,99149.84
2022-08-07T11:53:05.040Z,99157.19
2022-08-07T11:56:08.598Z,99170.53
2022-08-07T11:58:45.742Z,99182.56
2022-08-07T12:01:58.627Z,99173.56
2022-08-07T12:04:50.452Z,99189.63
2022-08-07T12:07:27.501Z,99181.41
2022-08-07T12:10:10.544Z,99190.31
2022-08-07T12:12:52.515Z,99202.34
2022-08-07T12:15:46.652Z,99195.06
2022-08-07T12:18:30.855Z,99204.63
2022-08-07T12:21:16.002Z,99208.53
2022-08-07T12:24:36.926Z,99193.34
2022-08-07T12:27:05.295Z,99224.47
2022-08-07T12:29:47.668Z,99227.41
2022-08-07T12:32:28.016Z,99235.69
2022-08-07T12:34:56.559Z,99246.19
2022-08-07T12:37:28.503Z,99252.88
2022-08-07T12:40:47.962Z,99270.28
2022-08-07T12:43:10.122Z,99257.03
2022-08-07T12:45:53.239Z,99256.22
2022-08-07T12:48:28.601Z,99244.06
2022-08-07T12:51:17.693Z,99259.13
2022-08-07T12:54:02.638Z,99261.81
2022-08-07T12:56:43.298Z,99256.19
2022-08-07T12:59:22.605Z,99257.19
2022-08-07T13:02:33.230Z,99245.81
2022-08-07T13:05:01.363Z,99244.22
2022-08-07T13:08:14.391Z,99265.69
2022-08-07T13:10:51.577Z,99258.63
2022-08-07T13:13:51.398Z,99277.75
2022-08-07T13:16:37.549Z,99273.91
2022-08-07T13:19:46.186Z,99282.88
2022-08-07T13:22:45.423Z,99276.41
2022-08-07T13:25:39.332Z,99264.09
2022-08-07T13:28:18.721Z,99256.69
2022-08-07T13:31:13.114Z,99250.88
2022-08-07T13:34:30.795Z,99261.59
2022-08-07T13:36:47.032Z,99274.06
2022-08-07T13:40:32.818Z,99263.44
2022-08-07T13:42:19.158Z,99274.47
2022-08-07T13:44:55.330Z,99261.09
2022-08-07T13:48:05.798Z,99254.16
2022-08-07T13:50:35.671Z,99240.97
2022-08-07T13:53:22.009Z,99262.34
2022-08-07T13:55:54.537Z,99263.34
2022-08-07T13:58:56.598Z,99252.56
2022-08-07T14:01:29.384Z,99258.56
2022-08-07T14:04:10.226Z,99265.03
2022-08-07T14:06:47.335Z,99269.84
2022-08-07T14:10:16.503Z,99262.38
2022-08-07T14:12:27.453Z,99302.72
2022-08-07T14:15:09.010Z,99274.56
2022-08-07T14:18:23.942Z,99248.81
2022-08-07T14:20:42.483Z,99251.50
2022-08-07T14:23:59.382Z,99256.78
2022-08-07T14:30:04.844Z,99250.97
2022-08-07T14:32:05.437Z,99250.44
2022-08-07T14:34:34.377Z,99245.94
2022-08-07T14:37:16.814Z,99243.06
2022-08-07T14:40:17.301Z,99252.13
2022-08-07T14:43:01.384Z,99242.66
2022-08-07T14:45:46.724Z,99243.41
2022-08-07T14:48:20.445Z,99246.56
2022-08-07T14:50:51.116Z,99252.44
2022-08-07T14:54:03.758Z,99233.63
2022-08-07T14:56:13.214Z,99240.34
2022-08-07T14:58:45.384Z,99236.91
2022-08-07T15:01:22.343Z,99239.91
2022-08-07T15:06:40.867Z,99252.38
2022-08-07T15:09:58.238Z,99248.03
2022-08-07T15:12:10.068Z,99255.56
2022-08-07T15:15:21.098Z,99257.13
2022-08-07T15:18:03.105Z,99259.31
2022-08-07T15:20:54.643Z,99264.69
2022-08-07T15:26:21.194Z,99270.44
2022-08-07T15:28:59.563Z,99275.72
2022-08-07T15:32:01.984Z,99282.31
2022-08-07T15:34:37.833Z,99297.78
2022-08-07T15:40:16.029Z,99290.75
2022-08-07T15:43:53.661Z,99294.06
2022-08-07T15:46:32.370Z,99281.16
2022-08-07T15:49:14.573Z,99266.13
2022-08-07T15:54:39.253Z,99263.72
2022-08-07T15:57:40.119Z,99268.66
2022-08-07T16:00:04.352Z,99256.59
2022-08-07T16:02:46.717Z,99255.00
2022-08-07T16:05:18.601Z,99264.63
2022-08-07T16:08:33.647Z,99266.28
2022-08-07T16:10:52.093Z,99279.94
2022-08-07T16:13:39.431Z,99292.78
2022-08-07T16:16:47.946Z,99308.03
2022-08-07T16:22:55.219Z,99297.69
2022-08-07T16:25:52.557Z,99306.13
2022-08-07T16:30:06.461Z,99311.78
2022-08-07T16:31:57.960Z,99305.56
2022-08-07T16:34:31.635Z,99321.97
2022-08-07T16:37:01.896Z,99318.63
2022-08-07T16:39:55.000Z,99315.72
2022-08-07T16:42:40.274Z,99317.91
2022-08-07T16:46:41.005Z,99312.63
2022-08-07T16:49:10.427Z,99319.56
2022-08-07T16:52:01.582Z,99332.47
2022-08-07T16:55:20.042Z,99332.00
2022-08-07T16:58:04.234Z,99321.81
2022-08-07T17:00:41.554Z,99329.63
2022-08-07T17:03:17.155Z,99327.91
2022-08-07T17:06:29.825Z,99329.75
2022-08-07T17:09:13.819Z,99335.41
2022-08-07T17:12:04.456Z,99335.28
2022-08-07T17:14:48.500Z,99338.59
2022-08-07T17:17:47.371Z,99339.72
2022-08-07T17:20:29.917Z,99352.16
2022-08-07T17:23:16.940Z,99366.19
2022-08-07T17:26:23.214Z,99375.53
2022-08-07T17:30:12.619Z,99357.59
2022-08-07T17:32:30.526Z,99370.63
2022-08-07T17:35:51.077Z,99369.81
2022-08-07T17:38:33.076Z,99375.66
2022-08-07T17:42:01.662Z,99378.19
2022-08-07T17:44:41.470Z,99357.81
2022-08-07T17:47:38.133Z,99364.00
2022-08-07T17:50:36.211Z,99373.69
2022-08-07T17:54:01.222Z,99358.34
2022-08-07T17:56:49.444Z,99377.44
2022-08-07T18:05:21.222Z,99367.44
2022-08-07T18:09:00.587Z,99383.63
2022-08-07T18:14:55.746Z,99377.34
2022-08-07T18:18:45.242Z,99378.88
2022-08-07T18:21:51.510Z,99401.91
2022-08-07T18:24:47.229Z,99404.34
2022-08-07T18:27:40.243Z,99413.28
2022-08-07T18:30:32.357Z,99406.34
2022-08-07T18:33:54.879Z,99413.34
2022-08-07T18:36:54.035Z,99396.53
2022-08-07T18:40:08.010Z,99407.88
2022-08-07T18:43:06.547Z,99403.34
2022-08-07T18:46:26.652Z,99401.13
2022-08-07T18:50:03.404Z,99396.75
2022-08-07T18:52:37.675Z,99408.44
2022-08-07T18:55:08.393Z,99402.63
2022-08-07T18:58:17.185Z,99407.50
2022-08-07T19:01:05.740Z,99410.44
2022-08-07T19:03:49.677Z,99429.91
2022-08-07T19:06:33.792Z,99444.69
2022-08-07T19:09:51.034Z,99425.09
2022-08-07T19:12:17.983Z,99429.47
2022-08-07T19:16:02.466Z,99419.44
2022-08-07T19:18:34.712Z,99420.91
2022-08-07T19:21:47.621Z,99422.69
2022-08-07T19:24:07.943Z,99437.13
2022-08-07T19:27:08.959Z,99426.75
2022-08-07T19:31:05.964Z,99419.31
2022-08-07T19:32:26.002Z,99414.47
2022-08-07T19:35:03.530Z,99413.50
2022-08-07T19:37:57.363Z,99413.03
2022-08-07T19:40:31.600Z,99412.88
2022-08-07T19:43:08.801Z,99404.59
2022-08-07T19:46:07.627Z,99402.19
2022-08-07T19:48:42.707Z,99417.72
2022-08-07T19:51:19.275Z,99404.75
2022-08-07T19:54:33.550Z,99422.09
2022-08-07T19:57:51.537Z,99417.06
2022-08-07T19:59:40.938Z,99417.22
2022-08-07T20:02:19.127Z,99420.59
2022-08-07T20:04:50.266Z,99408.44
2022-08-07T20:07:46.156Z,99424.00
2022-08-07T20:10:36.108Z,99411.50
2022-08-07T20:13:23.918Z,99398.19
2022-08-07T20:15:58.408Z,99422.69
2022-08-07T20:18:33.544Z,99426.25
2022-08-07T20:21:14.843Z,99415.56
2022-08-07T20:23:57.919Z,99421.06
2022-08-07T20:26:38.687Z,99417.50
2022-08-07T20:29:48.180Z,99414.25
2022-08-07T20:32:11.414Z,99416.22
2022-08-07T20:34:52.147Z,99396.13
2022-08-07T20:37:25.561Z,99384.44
2022-08-07T20:40:02.539Z,99377.63
2022-08-07T20:42:33.659Z,99389.50
2022-08-07T20:45:33.265Z,99390.81
2022-08-07T20:47:57.870Z,99391.34
2022-08-07T20:50:30.382Z,99385.66
2022-08-07T20:52:57.951Z,99389.38
2022-08-07T20:55:25.364Z,99404.97
2022-08-07T20:58:03.305Z,99405.28
2022-08-07T21:00:44.226Z,99407.22
2022-08-07T21:03:16.208Z,99401.72
2022-08-07T21:05:58.279Z,99399.78
2022-08-07T21:08:38.158Z,99397.50
2022-08-07T21:11:16.964Z,99397.97
2022-08-07T21:14:29.357Z,99386.47
2022-08-07T21:17:06.569Z,99391.66
2022-08-07T21:19:51.659Z,99400.91
2022-08-07T21:22:33.337Z,99412.22
2022-08-07T21:25:29.798Z,99414.69
2022-08-07T21:28:18.912Z,99427.66
2022-08-07T21:31:12.530Z,99420.50
2022-08-07T21:33:48.594Z,99431.84
2022-08-07T21:36:50.387Z,99443.84
2022-08-07T21:39:46.706Z,99427.66
2022-08-07T21:46:05.273Z,99423.25
2022-08-07T21:48:28.544Z,99421.63
2022-08-07T21:51:02.315Z,99422.47
2022-08-07T21:53:53.032Z,99438.16
2022-08-07T21:56:40.260Z,99436.06
2022-08-07T22:00:02.899Z,99434.91
2022-08-07T22:02:31.194Z,99435.56
2022-08-07T22:05:02.446Z,99436.06
2022-08-07T22:07:48.608Z,99442.38
2022-08-07T22:10:26.099Z,99431.19
2022-08-07T22:12:57.194Z,99435.25
2022-08-07T22:16:43.510Z,99445.59
2022-08-07T22:18:28.160Z,99442.69
2022-08-07T22:20:59.745Z,99431.03
2022-08-07T22:23:40.177Z,99427.13
2022-08-07T22:26:38.090Z,99431.50
2022-08-07T22:29:34.077Z,99443.66
2022-08-07T22:32:35.678Z,99438.16
2022-08-07T22:35:04.956Z,99444.31
2022-08-07T22:38:03.255Z,99429.25
2022-08-07T22:40:50.123Z,99431.53
2022-08-07T22:43:34.103Z,99435.41
2022-08-07T22:47:01.867Z,99435.09
2022-08-07T22:49:18.193Z,99432.19
2022-08-07T22:52:07.136Z,99430.09
2022-08-07T22:54:51.632Z,99438.63
2022-08-07T22:57:40.858Z,99429.88
2022-08-07T23:00:31.014Z,99434.59
2022-08-07T23:03:23.770Z,99447.56
2022-08-07T23:06:10.186Z,99450.31
2022-08-07T23:10:00.772Z,99450.47
2022-08-07T23:12:32.604Z,99457.56
2022-08-07T23:16:13.063Z,99456.44
2022-08-07T23:19:51.498Z,99471.31
2022-08-07T23:22:52.678Z,99463.34
2022-08-07T23:25:41.673Z,99469.66
2022-08-07T23:28:54.429Z,99462.31
2022-08-07T23:34:19.025Z,99474.75
2022-08-07T23:35:01.029Z,99463.06
2022-08-07T23:37:35.030Z,99467.91
2022-08-07T23:40:20.576Z,99463.84
2022-08-07T23:43:38.028Z,99461.44
2022-08-07T23:46:30.453Z,99458.00
2022-08-07T23:49:50.546Z,99464.97
2022-08-07T23:52:58.189Z,99465.41
2022-08-07T23:55:52.962Z,99462.66
2022-08-07T23:58:29.957Z,99468.59
